createdAt,value
2023-01-25T00:01:33.758Z,100.00
2023-01-25T00:06:35.563Z,100.00
2023-01-25T00:11:37.803Z,100.00
2023-01-25T00:16:40.289Z,100.00
2023-01-25T00:21:42.209Z,100.00
2023-01-25T00:26:44.189Z,100.00
2023-01-25T00:32:02.049Z,100.00
2023-01-25T00:37:14.395Z,100.00
2023-01-25T00:42:17.787Z,100.00
2023-01-25T00:47:19.833Z,100.00
2023-01-25T00:52:23.100Z,100.00
2023-01-25T00:57:24.955Z,100.00
2023-01-25T01:02:26.734Z,100.00
2023-01-25T01:07:29.107Z,100.00
2023-01-25T01:12:30.780Z,100.00
2023-01-25T01:17:32.409Z,100.00
2023-01-25T01:22:34.052Z,100.00
2023-01-25T01:27:35.790Z,100.00
2023-01-25T01:32:37.694Z,100.00
2023-01-25T01:37:42.916Z,100.00
2023-01-25T01:43:02.116Z,100.00
2023-01-25T01:48:05.576Z,100.00
2023-01-25T01:53:07.872Z,100.00
2023-01-25T01:58:10.450Z,100.00
2023-01-25T02:03:14.195Z,100.00
2023-01-25T02:08:15.927Z,100.00
2023-01-25T02:13:19.113Z,100.00
2023-01-25T02:18:20.749Z,100.00
2023-01-25T02:24:04.363Z,100.00
2023-01-25T02:29:07.987Z,100.00
2023-01-25T02:34:09.602Z,100.00
2023-01-25T02:39:20.069Z,100.00
2023-01-25T02:44:26.696Z,100.00
2023-01-25T02:49:28.396Z,100.00
2023-01-25T02:54:30.177Z,100.00
2023-01-25T02:59:31.990Z,100.00
2023-01-25T03:04:34.908Z,100.00
2023-01-25T03:09:37.353Z,100.00
2023-01-25T03:14:39.072Z,100.00
2023-01-25T03:19:41.062Z,100.00
2023-01-25T03:24:42.870Z,100.00
2023-01-25T03:29:46.107Z,100.00
2023-01-25T03:34:52.520Z,100.00
2023-01-25T03:39:55.084Z,100.00
2023-01-25T03:44:58.659Z,100.00
2023-01-25T03:50:00.783Z,100.00
2023-01-25T03:55:02.574Z,100.00
2023-01-25T04:00:05.083Z,100.00
2023-01-25T04:05:16.925Z,100.00
2023-01-25T04:10:19.074Z,100.00
2023-01-25T04:15:22.786Z,100.00
2023-01-25T04:20:24.739Z,100.00
2023-01-25T04:25:27.527Z,100.00
2023-01-25T04:30:29.259Z,100.00
2023-01-25T04:35:32.907Z,100.00
2023-01-25T04:40:37.129Z,100.00
2023-01-25T04:45:38.871Z,100.00
2023-01-25T04:50:46.848Z,100.00
2023-01-25T04:55:49.678Z,100.00
2023-01-25T05:00:51.797Z,100.00
2023-01-25T05:05:53.975Z,100.00
2023-01-25T05:10:58.949Z,100.00
2023-01-25T05:16:19.958Z,100.00
2023-01-25T05:21:42.975Z,100.00
2023-01-25T05:27:01.657Z,100.00
2023-01-25T05:32:23.200Z,100.00
2023-01-25T05:37:24.938Z,100.00
2023-01-25T05:42:33.451Z,100.00
2023-01-25T05:47:36.211Z,100.00
2023-01-25T05:52:37.989Z,100.00
2023-01-25T05:57:39.753Z,100.00
2023-01-25T06:02:41.665Z,100.00
2023-01-25T06:07:48.025Z,100.00
2023-01-25T06:12:56.968Z,100.00
2023-01-25T06:17:58.688Z,100.00
2023-01-25T06:23:13.824Z,100.00
2023-01-25T06:28:15.508Z,100.00
2023-01-25T06:33:17.131Z,100.00
2023-01-25T06:38:18.817Z,100.00
2023-01-25T06:43:20.411Z,100.00
2023-01-25T06:48:21.997Z,100.00
2023-01-25T06:53:25.320Z,100.00
2023-01-25T06:58:27.943Z,100.00
2023-01-25T07:03:30.699Z,100.00
2023-01-25T07:08:33.882Z,100.00
2023-01-25T07:13:35.591Z,100.00
2023-01-25T07:18:37.639Z,100.00
2023-01-25T07:23:39.702Z,100.00
2023-01-25T07:28:41.318Z,100.00
2023-01-25T07:33:43.202Z,100.00
2023-01-25T07:38:44.817Z,100.00
2023-01-25T07:43:46.433Z,100.00
2023-01-25T07:48:54.721Z,100.00
2023-01-25T07:54:02.246Z,100.00
2023-01-25T07:59:04.304Z,100.00
2023-01-25T08:04:07.084Z,100.00
2023-01-25T08:09:12.811Z,100.00
2023-01-25T08:14:14.484Z,100.00
2023-01-25T08:19:16.129Z,100.00
2023-01-25T08:24:20.102Z,100.00
2023-01-25T08:29:22.382Z,100.00
2023-01-25T08:34:24.137Z,100.00
2023-01-25T08:39:25.944Z,100.00
2023-01-25T08:44:27.541Z,100.00
2023-01-25T08:49:31.126Z,100.00
2023-01-25T08:54:32.779Z,100.00
2023-01-25T08:59:34.436Z,100.00
2023-01-25T09:04:36.077Z,100.00
2023-01-25T09:09:37.716Z,100.00
2023-01-25T09:14:40.371Z,100.00
2023-01-25T09:19:42.575Z,100.00
2023-01-25T09:24:45.051Z,99.11
2023-01-25T09:30:00.921Z,98.35
2023-01-25T09:35:04.733Z,96.77
2023-01-25T09:40:19.611Z,96.83
2023-01-25T09:45:32.232Z,95.75
2023-01-25T09:50:48.179Z,94.50
2023-01-25T09:55:56.139Z,93.81
2023-01-25T10:01:38.130Z,92.80
2023-01-25T10:06:48.779Z,91.90
2023-01-25T10:12:03.970Z,91.36
2023-01-25T10:17:19.201Z,89.61
2023-01-25T10:22:25.375Z,89.83
2023-01-25T10:27:59.214Z,88.34
2023-01-25T10:33:07.597Z,88.68
2023-01-25T10:38:21.590Z,87.33
2023-01-25T10:43:23.783Z,87.97
2023-01-25T10:48:36.592Z,89.14
2023-01-25T10:53:44.274Z,89.91
2023-01-25T10:58:49.314Z,91.04
2023-01-25T11:03:51.369Z,89.33
2023-01-25T11:08:53.016Z,90.78
2023-01-25T11:13:55.398Z,89.91
2023-01-25T11:18:59.017Z,89.91
2023-01-25T11:24:06.729Z,88.94
2023-01-25T11:29:12.316Z,90.65
2023-01-25T11:34:17.027Z,89.34
2023-01-25T11:39:53.663Z,90.15
2023-01-25T11:45:13.668Z,90.47
2023-01-25T11:50:19.610Z,90.59
2023-01-25T11:55:29.299Z,89.66
2023-01-25T12:00:54.911Z,89.48
2023-01-25T12:06:12.892Z,89.73
2023-01-25T12:11:44.103Z,89.82
2023-01-25T12:17:06.267Z,89.15
2023-01-25T12:22:24.114Z,92.16
2023-01-25T12:27:54.695Z,91.66
2023-01-25T12:33:13.399Z,90.76
2023-01-25T12:38:24.367Z,92.38
2023-01-25T12:43:38.811Z,92.40
2023-01-25T12:48:47.590Z,92.08
2023-01-25T12:53:52.538Z,92.61
2023-01-25T12:59:00.099Z,91.11
2023-01-25T13:04:40.123Z,92.79
2023-01-25T13:09:50.045Z,93.02
2023-01-25T13:14:51.997Z,92.06
2023-01-25T13:19:54.468Z,90.54
2023-01-25T13:25:02.137Z,91.06
2023-01-25T13:30:22.206Z,90.33
2023-01-25T13:35:35.075Z,91.27
2023-01-25T13:40:39.888Z,91.00
2023-01-25T13:45:42.348Z,91.17
2023-01-25T13:50:51.179Z,90.64
2023-01-25T13:55:55.652Z,93.13
2023-01-25T14:01:08.306Z,93.53
2023-01-25T14:06:32.171Z,92.63
2023-01-25T14:11:35.907Z,92.88
2023-01-25T14:16:37.574Z,94.29
2023-01-25T14:21:39.739Z,93.17
2023-01-25T14:26:42.087Z,93.36
2023-01-25T14:31:43.808Z,93.75
2023-01-25T14:36:46.839Z,94.32
2023-01-25T14:42:01.149Z,94.45
2023-01-25T14:47:22.938Z,95.00
2023-01-25T14:52:27.764Z,96.33
2023-01-25T14:57:32.493Z,95.69
2023-01-25T15:03:00.580Z,96.66
2023-01-25T15:08:08.250Z,97.28
2023-01-25T15:13:14.468Z,97.10
2023-01-25T15:18:41.039Z,96.88
2023-01-25T15:23:44.448Z,95.68
2023-01-25T15:28:46.423Z,96.29
2023-01-25T15:33:48.095Z,95.72
2023-01-25T15:38:49.762Z,95.78
2023-01-25T15:43:52.128Z,96.70
2023-01-25T15:48:54.277Z,97.45
2023-01-25T15:53:55.868Z,96.88
2023-01-25T15:59:00.413Z,97.05
2023-01-25T16:04:02.089Z,98.20
2023-01-25T16:09:14.216Z,99.24
2023-01-25T16:14:15.865Z,97.96
2023-01-25T16:19:20.133Z,97.05
2023-01-25T16:24:21.854Z,97.43
2023-01-25T16:29:24.109Z,98.03
2023-01-25T16:34:25.717Z,97.76
2023-01-25T16:39:28.357Z,98.15
2023-01-25T16:44:30.067Z,98.55
2023-01-25T16:49:33.499Z,98.92
2023-01-25T16:54:35.099Z,99.47
2023-01-25T16:59:36.708Z,99.31
2023-01-25T17:04:38.329Z,98.86
2023-01-25T17:09:40.097Z,99.22
2023-01-25T17:14:41.722Z,100.00
2023-01-25T17:19:43.305Z,99.43
2023-01-25T17:24:44.904Z,100.00
2023-01-25T17:29:46.607Z,100.00
2023-01-25T17:34:48.349Z,100.00
2023-01-25T17:39:49.958Z,100.00
2023-01-25T17:44:51.546Z,100.00
2023-01-25T17:49:53.218Z,100.00
2023-01-25T17:54:54.813Z,100.00
2023-01-25T17:59:56.441Z,100.00
2023-01-25T18:04:58.080Z,100.00
2023-01-25T18:09:59.785Z,100.00
2023-01-25T18:15:01.438Z,100.00
2023-01-25T18:20:05.479Z,100.00
2023-01-25T18:25:27.094Z,100.00
2023-01-25T18:30:51.771Z,100.00
2023-01-25T18:35:54.096Z,100.00
2023-01-25T18:40:56.207Z,100.00
2023-01-25T18:45:59.529Z,100.00
2023-01-25T18:51:12.951Z,100.00
2023-01-25T18:56:17.164Z,100.00
2023-01-25T19:01:20.829Z,100.00
2023-01-25T19:06:24.262Z,100.00
2023-01-25T19:11:26.667Z,100.00
2023-01-25T19:16:28.444Z,100.00
2023-01-25T19:21:30.278Z,100.00
2023-01-25T19:26:31.893Z,100.00
2023-01-25T19:31:34.438Z,100.00
2023-01-25T19:36:37.956Z,100.00
2023-01-25T19:41:39.567Z,100.00
2023-01-25T19:46:41.403Z,100.00
2023-01-25T19:51:47.897Z,100.00
2023-01-25T19:56:50.303Z,100.00
2023-01-25T20:01:52.312Z,100.00
2023-01-25T20:06:54.052Z,100.00
2023-01-25T20:11:56.989Z,100.00
2023-01-25T20:16:58.622Z,100.00
2023-01-25T20:22:00.557Z,100.00
2023-01-25T20:27:04.250Z,100.00
2023-01-25T20:32:06.268Z,100.00
2023-01-25T20:37:07.948Z,100.00
2023-01-25T20:42:09.572Z,100.00
2023-01-25T20:47:11.151Z,100.00
2023-01-25T20:52:13.853Z,100.00
2023-01-25T20:57:15.496Z,100.00
2023-01-25T21:02:17.120Z,100.00
2023-01-25T21:07:18.746Z,100.00
2023-01-25T21:12:20.360Z,100.00
2023-01-25T21:17:21.960Z,100.00
2023-01-25T21:22:24.071Z,100.00
2023-01-25T21:27:29.564Z,100.00
2023-01-25T21:32:31.198Z,100.00
2023-01-25T21:37:32.871Z,100.00
2023-01-25T21:42:34.484Z,100.00
2023-01-25T21:47:36.585Z,100.00
2023-01-25T21:52:38.222Z,100.00
2023-01-25T21:57:47.102Z,100.00
2023-01-25T22:02:51.701Z,100.00
2023-01-25T22:07:53.343Z,100.00
2023-01-25T22:12:54.994Z,100.00
2023-01-25T22:17:56.651Z,100.00
2023-01-25T22:22:58.246Z,100.00
2023-01-25T22:28:00.224Z,100.00
2023-01-25T22:33:01.825Z,100.00
2023-01-25T22:38:03.423Z,100.00
2023-01-25T22:43:05.024Z,100.00
2023-01-25T22:48:06.865Z,100.00
2023-01-25T22:53:08.472Z,100.00
2023-01-25T22:58:10.418Z,100.00
2023-01-25T23:03:12.053Z,100.00
2023-01-25T23:08:13.710Z,100.00
2023-01-25T23:13:15.403Z,100.00
2023-01-25T23:18:35.683Z,100.00
2023-01-25T23:23:37.343Z,100.00
2023-01-25T23:28:39.136Z,100.00
2023-01-25T23:33:40.774Z,100.00
2023-01-25T23:38:43.515Z,100.00
2023-01-25T23:43:45.814Z,100.00
2023-01-25T23:48:47.782Z,100.00
2023-01-25T23:53:49.424Z,100.00
2023-01-25T23:58:51.025Z,100.00
